Time;durP1;ratioP1;P1;durP2;ratioP2;P2;SDS_P1;SDS_P2;PMS_P1;PMS_P2;Temp;Humidity;BMP_temperature;BMP_pressure;BME280_temperature;BME280_humidity;BME280_pressure;Samples;Min_cycle;Max_cycle;Signal;HPM_P1;HPM_P2
2022/08/31 00:06:16;;;;;;;1.83;0.88;;;;;;;11.01;100.00;102595.44;6214014;23;20032;-83
2022/08/31 00:08:42;;;;;;;1.40;0.70;;;;;;;11.06;100.00;102606.59;6188249;23;20009;-83
2022/08/31 00:11:12;;;;;;;0.90;0.50;;;;;;;11.11;100.00;102606.13;6213808;23;20024;-83
2022/08/31 00:13:38;;;;;;;0.70;0.60;;;;;;;11.17;100.00;102603.63;6213866;23;19993;-83
2022/08/31 00:16:04;;;;;;;2.38;0.73;;;;;;;11.22;100.00;102605.84;6213927;23;20017;-83
2022/08/31 00:18:29;;;;;;;1.20;0.65;;;;;;;11.11;100.00;102608.81;6187454;23;20039;-80
2022/08/31 00:20:55;;;;;;;1.48;0.75;;;;;;;11.10;100.00;102605.28;6187904;23;20001;-82
2022/08/31 00:23:20;;;;;;;1.15;0.77;;;;;;;11.15;100.00;102613.72;6188013;23;19993;-83
2022/08/31 00:25:47;;;;;;;1.08;0.70;;;;;;;11.18;100.00;102618.78;6213792;23;20009;-83
2022/08/31 00:28:14;;;;;;;0.88;0.70;;;;;;;11.20;100.00;102616.78;6213937;23;20023;-83
2022/08/31 00:30:40;;;;;;;1.20;0.80;;;;;;;11.18;100.00;102605.31;6187998;23;19993;-83
2022/08/31 00:33:06;;;;;;;1.70;0.80;;;;;;;11.18;100.00;102602.63;6187990;23;20031;-83
2022/08/31 00:35:34;;;;;;;3.53;0.82;;;;;;;11.16;100.00;102587.59;6214052;23;20075;-84
2022/08/31 00:38:01;;;;;;;0.60;0.52;;;;;;;11.29;100.00;102621.22;6213468;23;19989;-83
2022/08/31 00:40:26;;;;;;;0.80;0.70;;;;;;;11.23;100.00;102599.47;6187467;23;20009;-83
2022/08/31 00:42:52;;;;;;;1.73;0.75;;;;;;;11.34;100.00;102617.22;6213366;23;19997;-82
2022/08/31 00:45:18;;;;;;;1.00;0.70;;;;;;;11.27;100.00;102612.44;6214048;23;20019;-83
2022/08/31 00:47:43;;;;;;;0.95;0.70;;;;;;;11.21;100.00;102618.47;6187037;23;20016;-82
2022/08/31 00:50:11;;;;;;;1.42;0.63;;;;;;;11.12;100.00;102605.94;6187337;23;20009;-82
2022/08/31 00:52:42;;;;;;;1.00;0.60;;;;;;;11.19;100.00;102620.50;6213259;23;20008;-82
2022/08/31 00:55:14;;;;;;;0.65;0.60;;;;;;;11.18;100.00;102618.78;6213373;23;20005;-83
2022/08/31 00:57:43;;;;;;;2.00;0.77;;;;;;;11.14;100.00;102624.66;6213630;23;20032;-83
2022/08/31 01:00:13;;;;;;;2.95;0.60;;;;;;;11.04;100.00;102622.91;6212824;23;20020;-83
2022/08/31 01:02:39;;;;;;;2.83;0.90;;;;;;;10.94;100.00;102622.16;6214083;23;20000;-83
2022/08/31 01:05:06;;;;;;;1.15;0.70;;;;;;;10.80;100.00;102609.28;6213365;23;20041;-83
2022/08/31 01:07:32;;;;;;;1.13;0.82;;;;;;;10.83;100.00;102622.44;6188194;23;20040;-83
2022/08/31 01:09:58;;;;;;;0.70;0.52;;;;;;;10.77;100.00;102626.59;6187405;23;19993;-83
2022/08/31 01:12:26;;;;;;;1.05;0.75;;;;;;;10.73;100.00;102619.81;6213082;23;20041;-83
2022/08/31 01:14:52;;;;;;;4.80;0.70;;;;;;;10.67;100.00;102628.50;6212675;23;20057;-83
2022/08/31 01:17:19;;;;;;;1.90;0.80;;;;;;;10.60;100.00;102624.75;6187308;23;20384;-83
2022/08/31 01:20:02;;;;;;;1.50;0.80;;;;;;;10.48;100.00;102604.44;6213386;23;20017;-83
2022/08/31 01:22:37;;;;;;;2.00;0.75;;;;;;;10.56;100.00;102621.53;6187944;23;19999;-83
2022/08/31 01:25:04;;;;;;;1.17;0.73;;;;;;;10.58;100.00;102624.06;6187938;23;20000;-83
2022/08/31 01:27:33;;;;;;;1.23;0.60;;;;;;;10.60;100.00;102630.13;6187018;23;19993;-83
2022/08/31 01:30:00;;;;;;;0.82;0.52;;;;;;;10.49;100.00;102614.22;6213383;23;19997;-82
2022/08/31 01:32:26;;;;;;;2.22;0.75;;;;;;;10.56;100.00;102628.72;6187020;23;20019;-83
2022/08/31 01:34:51;;;;;;;0.95;0.68;;;;;;;10.39;100.00;102605.38;6187418;23;20013;-83
2022/08/31 01:37:17;;;;;;;1.48;0.70;;;;;;;10.42;100.00;102622.06;6213134;23;20017;-82
2022/08/31 01:39:42;;;;;;;1.50;0.82;;;;;;;10.52;100.00;102635.44;6212354;23;20020;-83
2022/08/31 01:42:08;;;;;;;0.90;0.50;;;;;;;10.41;100.00;102614.16;6187827;23;20073;-82
2022/08/31 01:44:33;;;;;;;1.40;0.70;;;;;;;10.49;100.00;102622.28;6187496;23;20009;-83
2022/08/31 01:46:59;;;;;;;1.02;0.60;;;;;;;10.51;100.00;102644.50;6187788;23;19993;-83
2022/08/31 01:49:25;;;;;;;3.80;0.60;;;;;;;10.48;100.00;102634.06;6162534;23;20013;-83
2022/08/31 01:51:52;;;;;;;1.25;0.70;;;;;;;10.52;100.00;102638.13;6188133;23;19989;-85
2022/08/31 01:54:19;;;;;;;0.75;0.68;;;;;;;10.55;100.00;102638.66;6213453;23;20017;-84
2022/08/31 01:56:46;;;;;;;2.85;0.50;;;;;;;10.53;100.00;102645.22;6187559;23;20009;-84
2022/08/31 01:59:15;;;;;;;1.95;0.50;;;;;;;10.55;100.00;102637.81;6212789;23;20000;-83
2022/08/31 02:01:43;;;;;;;1.92;0.70;;;;;;;10.45;100.00;102627.13;6213193;23;19997;-84
2022/08/31 02:04:11;;;;;;;0.90;0.60;;;;;;;10.53;100.00;102642.53;6212683;23;20026;-84
2022/08/31 02:16:57;;;;;;;1.45;0.60;;;;;;;10.39;100.00;102638.50;6211774;23;20019;-84
2022/08/31 02:19:22;;;;;;;0.90;0.65;;;;;;;9.40;100.00;102485.13;6212790;23;20009;-83
2022/08/31 02:21:48;;;;;;;1.05;0.68;;;;;;;10.42;100.00;102638.19;6212055;23;20049;-84
2022/08/31 02:24:13;;;;;;;1.20;0.73;;;;;;;10.35;100.00;102627.19;6213225;23;20017;-84
2022/08/31 02:26:39;;;;;;;1.17;0.80;;;;;;;10.47;100.00;102635.91;6212812;23;20013;-84
2022/08/31 02:29:06;;;;;;;1.10;0.50;;;;;;;10.40;100.00;102628.56;6214783;23;20005;-85
2022/08/31 02:31:31;;;;;;;2.55;0.60;;;;;;;10.46;100.00;102636.03;6214980;23;20345;-84
2022/08/31 02:33:57;;;;;;;0.73;0.50;;;;;;;10.43;100.00;102623.75;6188530;23;19997;-84
2022/08/31 02:36:23;;;;;;;0.90;0.55;;;;;;;10.38;100.00;102617.97;6215316;23;19993;-84
2022/08/31 02:38:48;;;;;;;1.15;0.70;;;;;;;10.51;100.00;102631.91;6189295;23;19989;-83
2022/08/31 02:41:14;;;;;;;0.98;0.70;;;;;;;10.51;100.00;102641.81;6214875;23;20065;-84
2022/08/31 02:43:40;;;;;;;0.47;0.47;;;;;;;10.50;100.00;102630.22;6189341;23;20029;-85
2022/08/31 02:46:05;;;;;;;1.42;0.70;;;;;;;10.51;100.00;102629.22;6214874;23;20004;-83
2022/08/31 02:48:31;;;;;;;0.80;0.60;;;;;;;10.49;100.00;102630.34;6189067;23;19989;-83
2022/08/31 02:51:03;;;;;;;0.70;0.60;;;;;;;10.39;100.00;102610.75;6214614;23;19993;-84
2022/08/31 02:53:28;;;;;;;1.35;0.70;;;;;;;10.52;100.00;102632.75;6189082;23;20073;-84
2022/08/31 03:14:02;;;;;;;1.05;0.75;;;;;;;10.38;100.00;102628.75;6207778;23;20025;-83
2022/08/31 03:16:27;;;;;;;0.98;0.70;;;;;;;10.41;100.00;102635.69;6189113;23;20008;-84
2022/08/31 03:18:53;;;;;;;0.75;0.60;;;;;;;10.36;100.00;102630.72;6214656;23;19989;-84
2022/08/31 03:21:18;;;;;;;1.25;0.68;;;;;;;10.32;100.00;102638.25;6214323;23;20013;-84
2022/08/31 03:23:44;;;;;;;2.38;0.65;;;;;;;10.32;100.00;102638.25;6189256;23;20012;-85
2022/08/31 03:26:09;;;;;;;1.42;0.70;;;;;;;10.23;100.00;102623.03;6188942;23;20032;-84
2022/08/31 03:28:36;;;;;;;0.50;0.50;;;;;;;10.24;100.00;102623.88;6188697;23;20060;-84
2022/08/31 03:31:04;;;;;;;1.40;1.00;;;;;;;10.38;100.00;102639.50;6213678;23;19992;-83
2022/08/31 03:33:29;;;;;;;1.42;0.60;;;;;;;10.43;100.00;102642.59;6214505;23;19996;-84
2022/08/31 03:35:55;;;;;;;1.15;0.60;;;;;;;10.33;100.00;102631.91;6214638;23;19989;-84
2022/08/31 03:38:20;;;;;;;0.90;0.70;;;;;;;10.46;100.00;102641.44;6214078;23;19993;-84
2022/08/31 03:40:46;;;;;;;0.77;0.60;;;;;;;10.25;100.00;102609.41;6188787;23;20009;-84
2022/08/31 03:43:12;;;;;;;0.75;0.60;;;;;;;10.43;100.00;102636.34;6214339;23;20085;-85
2022/08/31 03:45:40;;;;;;;1.02;0.70;;;;;;;10.55;100.00;102641.34;6214336;23;20005;-83
2022/08/31 03:48:08;;;;;;;0.68;0.43;;;;;;;10.58;100.00;102637.50;6189524;23;20015;-84
2022/08/31 03:50:34;;;;;;;1.35;0.60;;;;;;;10.59;100.00;102644.59;6214032;23;20044;-84
2022/08/31 03:53:03;;;;;;;1.15;0.63;;;;;;;10.57;100.00;102638.53;6189038;23;20024;-83
2022/08/31 03:55:32;;;;;;;1.08;0.60;;;;;;;10.60;100.00;102640.91;6213693;23;19993;-83
2022/08/31 03:57:57;;;;;;;1.95;0.70;;;;;;;10.48;100.00;102620.59;6163871;23;20004;-84
2022/08/31 04:00:24;;;;;;;1.02;0.70;;;;;;;10.60;100.00;102645.44;6214007;23;20020;-81
2022/08/31 04:02:49;;;;;;;1.63;0.73;;;;;;;10.55;100.00;102637.81;6213657;23;20134;-83
2022/08/31 04:05:16;;;;;;;6.18;1.00;;;;;;;10.58;100.00;102650.97;6188575;23;20009;-83
2022/08/31 04:07:42;;;;;;;0.52;0.52;;;;;;;10.60;100.00;102648.16;6213856;23;20040;-82
2022/08/31 04:10:13;;;;;;;1.05;0.75;;;;;;;10.53;100.00;102656.84;6213296;23;20005;-82
2022/08/31 04:12:39;;;;;;;1.33;0.70;;;;;;;10.46;100.00;102650.38;6213397;23;20005;-83
2022/08/31 04:15:05;;;;;;;0.85;0.63;;;;;;;10.50;100.00;102661.69;6214174;23;19989;-82
2022/08/31 04:17:31;;;;;;;1.08;0.80;;;;;;;10.48;100.00;102658.28;6188491;23;20009;-82
2022/08/31 04:19:57;;;;;;;1.80;0.80;;;;;;;10.46;100.00;102658.44;6188069;23;20288;-82
2022/08/31 04:22:22;;;;;;;2.35;0.70;;;;;;;10.45;100.00;102655.91;6213604;23;19993;-83
2022/08/31 04:24:47;;;;;;;1.30;0.85;;;;;;;10.41;100.00;102657.19;6214233;23;20001;-83
2022/08/31 04:27:12;;;;;;;1.33;0.75;;;;;;;10.42;100.00;102658.88;6188263;23;20016;-83
2022/08/31 04:29:38;;;;;;;1.38;0.98;;;;;;;10.41;100.00;102657.19;6214349;23;20009;-83
2022/08/31 04:32:04;;;;;;;1.10;0.90;;;;;;;10.32;100.00;102645.50;6214119;23;20028;-83
2022/08/31 04:34:29;;;;;;;1.20;0.75;;;;;;;10.35;100.00;102650.56;6213637;23;19997;-83
2022/08/31 04:36:54;;;;;;;1.15;0.90;;;;;;;10.21;100.00;102635.78;6213925;23;20024;-83
2022/08/31 04:39:21;;;;;;;2.15;0.88;;;;;;;10.11;100.00;102617.00;6214202;23;20020;-84
2022/08/31 04:41:47;;;;;;;1.45;0.70;;;;;;;10.18;100.00;102636.06;6214014;23;20020;-82
2022/08/31 04:44:12;;;;;;;1.10;0.70;;;;;;;10.32;100.00;102659.78;6188045;23;20021;-83
2022/08/31 04:46:39;;;;;;;1.50;0.95;;;;;;;10.48;100.00;102642.13;6212949;23;20056;-83
2022/08/31 04:49:06;;;;;;;1.92;0.80;;;;;;;11.13;100.00;102652.63;6214033;23;19989;-82
2022/08/31 04:51:35;;;;;;;3.78;0.77;;;;;;;11.91;100.00;102655.25;6186661;23;20009;-83
2022/08/31 04:54:03;;;;;;;1.17;0.80;;;;;;;12.58;99.13;102652.56;6188576;23;20081;-83
2022/08/31 04:56:32;;;;;;;1.08;0.73;;;;;;;13.08;95.74;102668.63;6213799;23;19993;-83
2022/08/31 04:59:00;;;;;;;4.55;0.68;;;;;;;13.81;91.69;102674.91;6213361;23;20016;-83
2022/08/31 05:01:30;;;;;;;2.40;0.85;;;;;;;14.61;87.69;102671.13;6213509;23;20017;-83
2022/08/31 05:03:58;;;;;;;0.60;0.60;;;;;;;14.32;87.25;102662.66;6213056;23;20013;-83
2022/08/31 05:06:27;;;;;;;1.50;0.88;;;;;;;13.76;90.28;102655.66;6213334;23;20009;-83
2022/08/31 05:09:00;;;;;;;1.30;0.80;;;;;;;13.06;93.98;102665.22;6213127;23;19993;-83
2022/08/31 05:11:28;;;;;;;2.20;0.80;;;;;;;13.10;95.71;102661.16;6212683;23;20093;-82
2022/08/31 05:13:56;;;;;;;0.80;0.75;;;;;;;14.23;89.21;102662.88;6204000;23;20020;-83
2022/08/31 05:16:21;;;;;;;2.00;0.75;;;;;;;14.48;87.44;102677.13;6211765;23;20001;-84
2022/08/31 05:18:48;;;;;;;1.35;0.90;;;;;;;13.54;92.51;102677.03;6212969;23;19997;-84
2022/08/31 05:21:24;;;;;;;1.00;0.70;;;;;;;12.99;96.07;102680.44;6213084;23;20045;-84
2022/08/31 05:23:50;;;;;;;1.70;0.70;;;;;;;12.75;98.35;102684.00;6212540;23;20024;-82
2022/08/31 05:28:58;;;;;;;1.15;0.80;;;;;;;10.96;99.93;102430.75;6200296;23;20100;-84
2022/08/31 05:31:28;;;;;;;0.90;0.70;;;;;;;10.89;100.00;102429.72;6213224;23;19989;-84
2022/08/31 05:33:54;;;;;;;1.20;0.73;;;;;;;12.49;100.00;102689.53;6187074;23;20027;-85
2022/08/31 05:38:57;;;;;;;1.00;0.70;;;;;;;11.55;100.00;102539.47;6160796;23;20388;-84
2022/08/31 05:46:33;;;;;;;2.40;0.85;;;;;;;11.37;100.00;102474.03;6213433;23;20085;-86
2022/08/31 05:51:34;;;;;;;0.75;0.60;;;;;;;11.14;100.00;102431.53;6204927;23;20027;-83
2022/08/31 05:54:01;;;;;;;1.02;0.60;;;;;;;12.84;100.00;102692.94;6161008;23;20013;-83
2022/08/31 05:56:27;;;;;;;1.98;0.77;;;;;;;12.88;100.00;102689.75;6186519;23;20056;-82
2022/08/31 05:58:53;;;;;;;3.42;0.93;;;;;;;12.94;100.00;102691.75;6211504;23;20005;-82
2022/08/31 06:01:31;;;;;;;6.07;0.70;;;;;;;13.14;99.14;102683.28;6184919;23;20033;-82
2022/08/31 06:03:57;;;;;;;1.20;0.80;;;;;;;12.92;100.00;102696.50;6184207;23;19993;-83
2022/08/31 06:06:23;;;;;;;3.10;0.50;;;;;;;12.86;100.00;102696.31;6183382;23;20044;-81
2022/08/31 06:08:50;;;;;;;1.23;0.70;;;;;;;12.83;100.00;102699.34;6209482;23;19993;-83
2022/08/31 06:11:18;;;;;;;1.27;0.70;;;;;;;12.72;100.00;102699.69;6186445;23;20033;-83
2022/08/31 06:13:45;;;;;;;1.70;0.80;;;;;;;12.65;100.00;102697.66;6211775;23;20001;-83
2022/08/31 06:16:12;;;;;;;5.20;0.80;;;;;;;12.38;100.00;102676.31;6212276;23;20045;-83
2022/08/31 06:18:39;;;;;;;1.88;0.80;;;;;;;12.45;100.00;102698.97;6188058;23;20008;-83
2022/08/31 06:21:11;;;;;;;3.08;0.60;;;;;;;12.38;100.00;102695.22;6187153;23;20013;-82
2022/08/31 06:23:43;;;;;;;1.58;0.85;;;;;;;12.40;100.00;102710.25;6187295;23;20013;-82
2022/08/31 06:26:14;;;;;;;1.05;0.60;;;;;;;12.48;100.00;102706.72;6185508;23;20010;-82
2022/08/31 06:28:45;;;;;;;1.73;0.80;;;;;;;12.58;100.00;102710.13;6179604;23;20009;-82
2022/08/31 06:31:19;;;;;;;3.50;0.90;;;;;;;12.65;100.00;102715.72;6203675;23;20005;-81
2022/08/31 06:33:46;;;;;;;2.75;0.70;;;;;;;12.77;100.00;102714.38;6209199;23;20012;-82
2022/08/31 06:36:14;;;;;;;3.03;0.75;;;;;;;12.89;100.00;102726.53;6206133;23;20016;-83
2022/08/31 06:38:39;;;;;;;1.60;0.80;;;;;;;12.85;100.00;102705.44;6210591;23;20004;-82
2022/08/31 06:41:21;;;;;;;1.00;0.80;;;;;;;13.01;99.85;102718.09;6180577;23;20020;-82
2022/08/31 06:43:47;;;;;;;1.75;0.70;;;;;;;13.06;99.89;102715.75;6209884;23;19997;-81
2022/08/31 06:46:15;;;;;;;1.70;0.82;;;;;;;13.02;100.00;102714.41;6185353;23;20039;-82
2022/08/31 06:48:40;;;;;;;2.08;0.80;;;;;;;13.14;99.92;102713.91;6185145;23;20016;-83
2022/08/31 06:51:07;;;;;;;2.78;1.02;;;;;;;13.14;100.00;102704.91;6210697;23;20017;-82
2022/08/31 06:53:34;;;;;;;3.78;0.90;;;;;;;13.36;99.54;102712.38;6183452;23;20064;-82
2022/08/31 06:56:15;;;;;;;2.53;0.80;;;;;;;13.33;99.18;102691.09;6181156;23;20075;-81
2022/08/31 06:58:40;;;;;;;6.65;0.90;;;;;;;13.50;99.65;102718.94;6180708;23;20001;-81
2022/08/31 07:01:15;;;;;;;2.47;0.77;;;;;;;13.51;99.98;102708.97;6183258;23;19993;-83
2022/08/31 07:03:42;;;;;;;2.47;0.75;;;;;;;13.73;99.04;102724.47;6210117;23;19997;-83
2022/08/31 07:06:23;;;;;;;3.50;0.82;;;;;;;13.95;98.19;102709.38;6183192;23;20005;-82
2022/08/31 07:08:51;;;;;;;1.60;0.70;;;;;;;14.28;96.56;102731.72;6203610;23;20004;-81
2022/08/31 07:11:26;;;;;;;3.33;0.80;;;;;;;14.43;95.34;102725.56;6179192;23;20009;-82
2022/08/31 07:13:54;;;;;;;2.45;0.93;;;;;;;14.21;95.66;102725.34;6202580;23;20028;-82
2022/08/31 07:16:21;;;;;;;1.88;0.85;;;;;;;14.33;95.13;102723.06;6206454;23;20435;-81
2022/08/31 07:18:47;;;;;;;1.15;0.90;;;;;;;14.29;95.01;102708.19;6209222;23;20007;-82
2022/08/31 07:21:19;;;;;;;2.70;0.60;;;;;;;14.31;95.26;102709.72;6206072;23;20001;-81
2022/08/31 07:23:45;;;;;;;3.33;0.98;;;;;;;14.35;95.10;102715.63;6185310;23;20001;-82
2022/08/31 07:26:13;;;;;;;1.00;0.50;;;;;;;14.51;94.84;102720.13;6180829;23;20016;-81
2022/08/31 07:28:43;;;;;;;4.22;1.08;;;;;;;14.66;94.47;102722.91;6206940;23;19997;-81
2022/08/31 07:31:10;;;;;;;1.27;0.80;;;;;;;14.76;94.93;102720.81;6183684;23;20004;-80
2022/08/31 07:33:40;;;;;;;0.88;0.65;;;;;;;15.14;93.64;102715.44;6202017;23;20001;-80
2022/08/31 07:36:12;;;;;;;3.78;1.05;;;;;;;15.20;92.69;102715.56;6178566;23;20032;-80
2022/08/31 07:44:09;;;;;;;1.02;0.70;;;;;;;15.38;91.99;102722.50;6186219;23;19970;-81
2022/08/31 07:46:35;;;;;;;1.48;0.70;;;;;;;15.49;91.20;102730.19;6179231;23;20020;-81
2022/08/31 07:49:01;;;;;;;2.50;0.57;;;;;;;15.56;91.06;102728.41;6212834;23;20004;-81
2022/08/31 07:51:27;;;;;;;2.90;0.70;;;;;;;15.70;91.08;102732.22;6203327;23;20032;-80
2022/08/31 07:53:53;;;;;;;1.45;0.80;;;;;;;15.78;90.75;102736.72;6207105;23;20024;-80
2022/08/31 07:56:22;;;;;;;3.88;0.75;;;;;;;15.61;90.45;102700.75;6202979;23;20009;-81
2022/08/31 07:58:48;;;;;;;1.17;0.68;;;;;;;15.95;89.21;102725.47;6181780;23;19989;-82
2022/08/31 08:01:15;;;;;;;0.82;0.50;;;;;;;16.07;89.16;102728.56;6180682;23;20016;-81
2022/08/31 08:03:43;;;;;;;1.50;0.63;;;;;;;16.25;87.67;102725.44;6207307;23;20000;-82
2022/08/31 08:06:14;;;;;;;1.13;0.63;;;;;;;16.40;86.78;102722.72;6181797;23;20005;-79
2022/08/31 08:08:41;;;;;;;0.70;0.50;;;;;;;16.56;85.14;102727.91;6200681;23;20000;-80
2022/08/31 08:11:07;;;;;;;0.98;0.50;;;;;;;16.60;81.20;102725.66;6178262;23;20001;-83
2022/08/31 08:13:34;;;;;;;0.65;0.50;;;;;;;16.75;80.75;102731.91;6197260;23;20001;-83
2022/08/31 08:15:59;;;;;;;0.93;0.50;;;;;;;16.79;79.09;102730.50;6175075;23;20013;-83
2022/08/31 08:18:25;;;;;;;1.40;0.50;;;;;;;16.91;78.01;102715.34;6171621;23;20048;-83
2022/08/31 08:20:51;;;;;;;1.33;0.60;;;;;;;17.09;76.83;102730.38;6173718;23;20020;-81
2022/08/31 08:23:18;;;;;;;0.80;0.57;;;;;;;16.98;75.66;102723.56;6189352;23;20373;-82
2022/08/31 08:25:45;;;;;;;1.15;0.50;;;;;;;17.08;74.88;102723.22;6197515;23;19992;-83
2022/08/31 08:28:16;;;;;;;0.60;0.40;;;;;;;17.17;74.60;102719.34;6182111;23;20013;-84
2022/08/31 08:30:43;;;;;;;0.90;0.50;;;;;;;17.22;74.00;102702.41;6198814;23;20291;-82
2022/08/31 08:33:09;;;;;;;0.80;0.52;;;;;;;17.37;72.77;102709.44;6200432;23;20060;-82
2022/08/31 08:35:34;;;;;;;0.45;0.40;;;;;;;17.47;72.15;102720.00;6145768;23;20001;-83
2022/08/31 08:38:02;;;;;;;0.80;0.45;;;;;;;17.39;71.26;102714.72;6171274;23;20434;-83
2022/08/31 08:40:43;;;;;;;3.40;0.52;;;;;;;17.58;70.36;102715.88;6175747;23;20012;-80
2022/08/31 08:43:15;;;;;;;1.65;0.57;;;;;;;17.61;69.16;102715.47;6165412;23;20012;-82
2022/08/31 08:45:42;;;;;;;1.42;0.50;;;;;;;17.73;68.89;102727.50;6190034;23;20005;-83
2022/08/31 08:48:12;;;;;;;0.85;0.43;;;;;;;17.72;68.05;102716.81;6192228;23;20083;-83
2022/08/31 08:50:39;;;;;;;1.13;0.68;;;;;;;17.81;68.58;102719.22;6190315;23;20115;-82
2022/08/31 08:53:09;;;;;;;1.23;0.50;;;;;;;17.93;66.22;102724.91;6190518;23;20083;-81
2022/08/31 08:55:37;;;;;;;0.55;0.50;;;;;;;17.87;65.79;102714.00;6171767;23;20102;-83
2022/08/31 08:58:09;;;;;;;1.50;0.40;;;;;;;18.03;61.95;102730.84;6196758;23;19997;-83
2022/08/31 09:00:36;;;;;;;1.65;0.70;;;;;;;18.08;63.41;102722.91;6168476;23;20013;-82
2022/08/31 09:03:20;;;;;;;0.77;0.40;;;;;;;17.93;61.25;102724.09;6193407;23;20008;-82
2022/08/31 09:06:08;;;;;;;0.52;0.40;;;;;;;17.84;58.86;102720.66;6175419;23;20064;-80
2022/08/31 09:08:54;;;;;;;0.85;0.30;;;;;;;17.84;58.22;102715.22;6178690;23;20012;-80
2022/08/31 09:11:23;;;;;;;0.73;0.40;;;;;;;18.03;60.28;102727.28;6178886;23;20214;-80
2022/08/31 09:14:09;;;;;;;1.00;0.50;;;;;;;18.10;59.15;102727.31;6181011;23;20039;-82
2022/08/31 09:16:46;;;;;;;0.63;0.30;;;;;;;18.12;56.93;102717.91;6208135;23;20001;-82
2022/08/31 09:19:18;;;;;;;1.10;0.47;;;;;;;18.30;58.72;102736.41;6180913;23;20001;-80
2022/08/31 09:21:46;;;;;;;0.43;0.30;;;;;;;18.25;56.31;102728.84;6209703;23;20028;-81
2022/08/31 09:24:15;;;;;;;0.47;0.35;;;;;;;18.08;56.01;102705.72;6210822;23;19997;-82
2022/08/31 09:27:16;;;;;;;0.60;0.40;;;;;;;18.26;54.49;102729.69;6184060;23;20004;-82
2022/08/31 09:29:43;;;;;;;0.70;0.40;;;;;;;18.40;54.68;102719.66;6209002;23;19989;-81
2022/08/31 09:32:16;;;;;;;1.00;0.50;;;;;;;18.36;54.57;102704.78;6210268;23;20032;-83
2022/08/31 09:34:53;;;;;;;0.55;0.30;;;;;;;18.56;55.07;102713.84;6183170;23;20004;-81
2022/08/31 09:37:25;;;;;;;0.60;0.40;;;;;;;18.75;55.06;102720.44;6181686;23;20008;-82
2022/08/31 09:39:52;;;;;;;0.65;0.50;;;;;;;18.53;53.57;102717.00;6208108;23;20056;-82
2022/08/31 09:42:22;;;;;;;1.50;0.40;;;;;;;18.73;52.93;102715.16;6182294;23;20017;-82
2022/08/31 09:44:49;;;;;;;0.75;0.40;;;;;;;18.91;52.92;102709.13;6185895;23;19997;-82
2022/08/31 09:47:40;;;;;;;1.98;0.55;;;;;;;19.09;53.61;102719.41;6207952;23;20061;-82
2022/08/31 09:50:08;;;;;;;0.30;0.30;;;;;;;19.12;51.88;102721.72;6186950;23;20015;-80
2022/08/31 09:55:24;;;;;;;0.40;0.30;;;;;;;19.29;49.13;102704.94;6207631;23;20047;-81
2022/08/31 09:58:03;;;;;;;0.50;0.30;;;;;;;19.24;48.07;102684.56;6209302;23;20017;-82
2022/08/31 10:00:33;;;;;;;0.50;0.40;;;;;;;19.39;49.00;102699.88;6203804;23;20419;-79
2022/08/31 10:03:07;;;;;;;1.92;0.40;;;;;;;19.33;48.57;102690.63;6201881;23;19992;-81
2022/08/31 10:05:40;;;;;;;0.40;0.40;;;;;;;19.62;49.24;102696.69;6207928;23;20001;-81
2022/08/31 10:08:17;;;;;;;0.57;0.38;;;;;;;19.64;47.84;102691.91;6203517;23;20012;-80
2022/08/31 10:10:44;;;;;;;2.08;0.40;;;;;;;19.47;46.50;102700.50;6204430;23;20009;-84
2022/08/31 10:13:57;;;;;;;0.45;0.32;;;;;;;19.63;44.23;102698.38;6198474;23;20104;-83
2022/08/31 10:16:46;;;;;;;1.05;0.40;;;;;;;19.70;45.04;102701.94;6178157;23;20032;-81
2022/08/31 10:19:19;;;;;;;0.63;0.40;;;;;;;19.83;43.44;102692.88;6203370;23;20472;-81
2022/08/31 10:22:10;;;;;;;0.50;0.30;;;;;;;19.90;41.16;102672.69;6200588;23;20031;-80
2022/08/31 10:24:54;;;;;;;0.57;0.40;;;;;;;20.11;39.99;102674.28;6204939;23;20000;-81
2022/08/31 10:27:34;;;;;;;0.43;0.40;;;;;;;20.18;41.26;102677.81;6201226;23;20331;-81
2022/08/31 10:30:15;;;;;;;0.32;0.30;;;;;;;20.27;41.38;102686.63;6201479;23;20404;-81
2022/08/31 10:33:05;;;;;;;0.38;0.30;;;;;;;19.89;44.84;102678.38;6203977;23;20001;-81
2022/08/31 10:35:56;;;;;;;1.85;0.35;;;;;;;19.98;45.13;102671.59;6204675;23;20060;-81
2022/08/31 10:38:42;;;;;;;0.63;0.40;;;;;;;19.75;45.60;102685.78;6204291;23;20032;-81
2022/08/31 10:41:35;;;;;;;0.82;0.40;;;;;;;19.60;46.41;102653.22;6203398;23;20001;-80
2022/08/31 10:44:23;;;;;;;0.90;0.55;;;;;;;19.63;47.67;102677.38;6204105;23;19999;-81
2022/08/31 10:46:57;;;;;;;0.70;0.50;;;;;;;19.22;47.64;102615.72;6206715;23;20001;-81
2022/08/31 10:49:24;;;;;;;1.10;0.40;;;;;;;19.62;49.76;102663.94;6207846;23;20076;-82
2022/08/31 10:52:19;;;;;;;2.42;0.40;;;;;;;19.47;48.94;102666.91;6209835;23;20032;-81
2022/08/31 10:55:36;;;;;;;0.50;0.30;;;;;;;19.07;48.16;102666.94;6210463;23;20005;-81
2022/08/31 10:58:21;;;;;;;0.85;0.30;;;;;;;19.34;48.77;102666.94;6178014;23;20039;-82
2022/08/31 11:01:06;;;;;;;0.32;0.30;;;;;;;19.54;47.67;102665.00;6183657;23;20061;-81
2022/08/31 11:04:29;;;;;;;0.50;0.40;;;;;;;19.70;47.36;102661.84;6210064;23;20016;-81
2022/08/31 11:07:23;;;;;;;0.47;0.47;;;;;;;20.00;47.24;102655.84;6187926;23;20019;-82
2022/08/31 11:10:15;;;;;;;0.28;0.28;;;;;;;20.16;47.05;102657.22;6187973;23;20009;-82
2022/08/31 11:12:45;;;;;;;1.90;0.40;;;;;;;20.25;46.48;102646.88;6212268;23;20024;-82
2022/08/31 11:15:32;;;;;;;1.08;0.60;;;;;;;20.14;46.30;102659.34;6213374;23;20016;-82
2022/08/31 11:18:20;;;;;;;3.08;0.40;;;;;;;19.69;46.33;102634.72;6211723;23;20092;-82
2022/08/31 11:21:13;;;;;;;0.50;0.30;;;;;;;18.09;47.73;102418.63;6208012;23;20060;-83
2022/08/31 11:24:02;;;;;;;0.90;0.32;;;;;;;19.46;49.17;102654.28;6186206;23;20032;-83
2022/08/31 11:26:39;;;;;;;0.60;0.43;;;;;;;19.10;50.13;102641.13;6211911;23;19992;-82
2022/08/31 11:29:27;;;;;;;0.65;0.30;;;;;;;18.98;50.16;102651.84;6185403;23;20012;-83
2022/08/31 11:31:59;;;;;;;0.40;0.40;;;;;;;18.90;51.09;102639.22;6210243;23;19997;-83
2022/08/31 11:34:27;;;;;;;1.73;0.50;;;;;;;19.13;50.46;102644.25;6211685;23;19991;-82
2022/08/31 11:36:54;;;;;;;0.60;0.50;;;;;;;19.37;50.01;102650.97;6210554;23;19996;-82
2022/08/31 11:39:20;;;;;;;1.85;0.60;;;;;;;19.21;50.20;102649.53;6211102;23;20008;-82
2022/08/31 11:41:47;;;;;;;0.60;0.30;;;;;;;18.93;49.42;102633.38;6185442;23;20009;-81
2022/08/31 11:44:32;;;;;;;0.63;0.30;;;;;;;18.93;48.71;102654.34;6210903;23;19989;-82
2022/08/31 11:47:05;;;;;;;;;;;;;;;18.78;47.15;102657.28;6210140;23;20001;-82
2022/08/31 11:49:42;;;;;;;3.30;0.40;;;;;;;18.83;47.64;102646.59;6182549;23;19912;-81
2022/08/31 11:52:21;;;;;;;2.03;0.40;;;;;;;19.07;49.40;102647.84;6208680;23;20004;-82
2022/08/31 11:54:49;;;;;;;0.70;0.50;;;;;;;19.49;49.64;102642.94;6209248;23;20024;-81
2022/08/31 11:57:22;;;;;;;0.70;0.32;;;;;;;19.94;47.83;102640.31;6183869;23;20008;-82
2022/08/31 11:59:48;;;;;;;2.13;0.40;;;;;;;19.89;46.75;102640.13;6209317;23;20016;-83
2022/08/31 12:02:19;;;;;;;0.82;0.60;;;;;;;20.04;46.19;102635.22;6211076;23;20049;-83
2022/08/31 12:04:50;;;;;;;0.60;0.35;;;;;;;19.86;47.80;102637.81;6211147;23;19988;-83
2022/08/31 12:07:27;;;;;;;0.70;0.30;;;;;;;19.65;47.17;102631.59;6184549;23;20029;-82
2022/08/31 12:10:13;;;;;;;1.77;0.43;;;;;;;19.60;47.25;102634.13;6209700;23;20005;-81
2022/08/31 12:12:57;;;;;;;0.20;0.20;;;;;;;19.50;45.86;102636.44;6182163;23;20009;-82
2022/08/31 12:15:47;;;;;;;0.32;0.32;;;;;;;19.45;47.77;102630.78;6185105;23;20005;-83
2022/08/31 12:18:32;;;;;;;0.95;0.30;;;;;;;19.36;47.83;102630.16;6206162;23;20036;-79
2022/08/31 12:24:16;;;;;;;0.40;0.30;;;;;;;19.18;47.60;102630.00;6188948;23;20102;-79
2022/08/31 12:26:51;;;;;;;0.40;0.30;;;;;;;19.12;48.22;102626.22;6188061;23;20004;-79
2022/08/31 12:29:24;;;;;;;0.57;0.40;;;;;;;19.04;52.12;102601.91;6199382;23;19997;-80
2022/08/31 12:32:08;;;;;;;0.50;0.43;;;;;;;19.10;56.09;102620.13;6193425;23;20060;-80
2022/08/31 12:34:38;;;;;;;0.55;0.30;;;;;;;18.88;56.19;102603.16;6177210;23;19993;-83
2022/08/31 12:37:27;;;;;;;0.30;0.30;;;;;;;18.85;58.97;102610.94;6181313;23;20001;-82